Time;durP1;ratioP1;P1;durP2;ratioP2;P2;SDS_P1;SDS_P2;PMS_P1;PMS_P2;Temp;Humidity;BMP_temperature;BMP_pressure;BME280_temperature;BME280_humidity;BME280_pressure;Samples;Min_cycle;Max_cycle;Signal;HPM_P1;HPM_P2
2022/07/05 00:02:03;;;;;;;8.95;2.85;;;;;;;23.65;48.89;99935.06;5143270;28;20027;-73
2022/07/05 00:04:29;;;;;;;6.40;2.63;;;;;;;23.65;48.82;99940.47;5143276;28;20035;-73
2022/07/05 00:09:38;;;;;;;6.03;2.17;;;;;;;23.75;48.56;99932.56;5143351;28;20095;-73
2022/07/05 00:12:04;;;;;;;8.35;2.47;;;;;;;23.85;48.42;99938.16;5124977;28;20023;-73
2022/07/05 00:14:30;;;;;;;4.80;2.20;;;;;;;23.81;48.95;99928.88;5147454;27;20044;-73
2022/07/05 00:16:55;;;;;;;5.22;2.50;;;;;;;23.75;49.09;99937.97;5129163;27;20087;-72
2022/07/05 00:19:21;;;;;;;8.35;2.55;;;;;;;23.70;49.15;99942.47;5147241;27;20250;-73
2022/07/05 00:21:46;;;;;;;4.82;2.13;;;;;;;23.45;49.88;99946.31;5147274;27;20027;-72
2022/07/05 00:24:12;;;;;;;5.03;2.50;;;;;;;23.65;49.47;99936.97;5147301;27;20042;-73
2022/07/05 00:26:37;;;;;;;9.15;2.72;;;;;;;23.61;49.56;99935.81;5147064;27;20116;-73
2022/07/05 00:29:03;;;;;;;6.70;2.67;;;;;;;23.68;49.38;99936.47;5128886;27;20206;-73
2022/07/05 00:31:28;;;;;;;9.52;2.58;;;;;;;23.71;49.50;99930.59;5147001;27;20027;-73
2022/07/05 00:33:53;;;;;;;6.90;3.05;;;;;;;23.53;49.71;99932.41;5147323;27;20043;-72
2022/07/05 00:36:19;;;;;;;6.40;2.95;;;;;;;23.59;49.53;99938.75;5146961;27;20031;-73
2022/07/05 00:38:44;;;;;;;10.75;2.70;;;;;;;23.61;49.60;99939.34;5147154;27;20035;-73
2022/07/05 00:41:10;;;;;;;6.05;2.40;;;;;;;23.57;49.75;99919.25;5147012;27;20023;-73
2022/07/05 00:43:35;;;;;;;11.07;2.42;;;;;;;23.46;50.90;99920.91;5147315;27;20047;-72
2022/07/05 00:46:01;;;;;;;6.28;2.63;;;;;;;22.99;53.30;99916.75;5146893;27;20083;-72
2022/07/05 00:48:26;;;;;;;10.68;3.25;;;;;;;22.78;54.68;99912.75;5128546;27;20037;-72
2022/07/05 00:50:52;;;;;;;12.00;2.85;;;;;;;22.59;54.10;99912.06;5146695;27;20224;-72
2022/07/05 00:53:17;;;;;;;6.32;2.75;;;;;;;22.58;54.60;99908.53;5146411;27;20050;-73
2022/07/05 00:55:44;;;;;;;5.82;3.00;;;;;;;22.64;54.84;99909.47;5146445;27;20038;-73
2022/07/05 00:58:10;;;;;;;12.63;3.10;;;;;;;22.65;54.39;99910.28;5146781;27;20039;-72
2022/07/05 01:00:37;;;;;;;9.23;2.67;;;;;;;22.67;54.09;99891.97;5146579;27;20027;-72
2022/07/05 01:03:04;;;;;;;6.95;2.60;;;;;;;22.53;54.07;99905.72;5146740;27;20061;-72
2022/07/05 01:05:32;;;;;;;5.10;2.60;;;;;;;22.42;54.20;99906.56;5128107;27;20023;-72
2022/07/05 01:08:00;;;;;;;5.43;3.08;;;;;;;22.51;53.93;99904.31;5146382;27;20072;-72
2022/07/05 01:10:26;;;;;;;5.85;2.78;;;;;;;22.52;53.93;99887.91;5146327;27;20030;-72
2022/07/05 01:12:53;;;;;;;5.20;2.65;;;;;;;22.65;54.42;99888.69;5128076;27;20023;-73
2022/07/05 01:15:21;;;;;;;7.18;2.85;;;;;;;22.65;54.49;99897.63;5146182;27;20027;-73
2022/07/05 01:17:47;;;;;;;9.52;3.45;;;;;;;22.81;53.87;99893.41;5146404;27;20046;-72
2022/07/05 01:20:12;;;;;;;5.72;3.10;;;;;;;22.74;53.87;99887.28;5128024;27;20019;-72
2022/07/05 01:22:55;;;;;;;6.75;3.08;;;;;;;22.74;54.26;99888.09;5146553;27;20031;-73
2022/07/05 01:25:25;;;;;;;7.90;3.00;;;;;;;22.69;54.28;99890.69;5145643;27;20224;-72
2022/07/05 01:27:52;;;;;;;17.90;3.40;;;;;;;22.61;54.31;99888.34;5146149;27;20039;-73
2022/07/05 01:30:19;;;;;;;16.15;3.38;;;;;;;22.68;54.31;99882.84;5127429;27;20255;-72
2022/07/05 01:32:44;;;;;;;9.15;3.10;;;;;;;22.76;54.12;99890.56;5146008;27;20039;-73
2022/07/05 01:35:11;;;;;;;9.63;2.80;;;;;;;22.44;55.75;99863.97;5145612;27;20080;-73
2022/07/05 01:37:37;;;;;;;7.45;2.90;;;;;;;22.45;55.25;99886.38;5145973;27;20043;-72
2022/07/05 01:40:03;;;;;;;7.18;2.97;;;;;;;22.45;55.28;99886.38;5145730;27;20027;-75
2022/07/05 01:42:29;;;;;;;12.68;3.03;;;;;;;22.38;54.97;99886.50;5145892;27;20116;-75
2022/07/05 01:44:55;;;;;;;5.15;3.15;;;;;;;22.45;54.78;99880.97;5127309;27;20073;-73
2022/07/05 01:47:20;;;;;;;6.00;2.88;;;;;;;22.53;54.50;99888.72;5127367;27;20023;-73
2022/07/05 01:49:49;;;;;;;7.00;2.80;;;;;;;22.53;54.37;99880.63;5145513;27;20023;-72
2022/07/05 01:52:16;;;;;;;6.07;2.90;;;;;;;22.41;54.26;99874.41;5145507;27;20082;-73
2022/07/05 01:54:43;;;;;;;10.65;3.00;;;;;;;22.52;53.96;99887.91;5145222;27;20054;-72
2022/07/05 01:57:09;;;;;;;6.28;3.00;;;;;;;22.59;54.29;99893.16;5145175;27;20031;-73
2022/07/05 01:59:36;;;;;;;9.32;2.90;;;;;;;22.49;54.41;99885.66;5127117;27;20330;-72
2022/07/05 02:02:03;;;;;;;11.85;2.75;;;;;;;22.50;54.69;99890.00;5145307;27;20377;-73
2022/07/05 02:04:29;;;;;;;8.63;2.75;;;;;;;22.45;54.84;99886.38;5145259;27;20054;-73
2022/07/05 02:06:55;;;;;;;11.60;3.00;;;;;;;22.42;55.12;99898.47;5145501;27;20027;-75
2022/07/05 02:09:20;;;;;;;4.00;2.50;;;;;;;22.30;54.80;99887.69;5145390;27;20067;-73
2022/07/05 02:11:46;;;;;;;3.13;2.53;;;;;;;22.39;54.89;99907.03;5145642;27;20027;-75
2022/07/05 02:14:11;;;;;;;9.43;2.92;;;;;;;22.44;54.64;99903.63;5145026;27;20339;-73
2022/07/05 02:16:37;;;;;;;11.52;3.42;;;;;;;22.39;54.50;99904.34;5145090;27;20224;-72
2022/07/05 02:19:04;;;;;;;13.60;2.80;;;;;;;22.28;54.60;99902.47;5145350;27;20336;-73
2022/07/05 02:21:29;;;;;;;17.88;3.72;;;;;;;22.37;54.71;99906.44;5145134;27;20027;-73
2022/07/05 02:23:55;;;;;;;11.23;3.20;;;;;;;22.40;54.62;99899.75;5144790;27;20041;-73
2022/07/05 02:26:20;;;;;;;8.80;2.95;;;;;;;22.40;54.74;99899.75;5144735;27;20328;-73
2022/07/05 02:28:46;;;;;;;7.70;2.67;;;;;;;22.32;55.04;99906.31;5126552;27;20019;-73
2022/07/05 02:31:12;;;;;;;8.18;2.80;;;;;;;22.22;55.71;99898.81;5122841;28;20081;-72
2022/07/05 02:33:37;;;;;;;6.50;2.65;;;;;;;22.05;56.03;99903.25;5124336;28;20042;-75
2022/07/05 02:36:11;;;;;;;10.35;2.80;;;;;;;21.71;58.01;99910.19;5123106;28;20090;-72
2022/07/05 02:38:37;;;;;;;8.18;3.33;;;;;;;21.55;59.22;99911.66;5124084;28;20271;-75
2022/07/05 02:41:07;;;;;;;9.25;3.05;;;;;;;21.56;59.54;99912.47;5124554;28;20061;-75
2022/07/05 02:43:36;;;;;;;14.68;3.03;;;;;;;21.72;59.09;99921.78;5124223;28;20384;-75
2022/07/05 02:46:03;;;;;;;6.80;2.80;;;;;;;21.82;58.58;99922.03;5123950;28;20032;-73
2022/07/05 02:48:28;;;;;;;14.55;3.30;;;;;;;21.74;58.60;99933.16;5122688;28;20106;-73
2022/07/05 02:50:54;;;;;;;12.07;3.78;;;;;;;21.63;58.26;99929.38;5124014;28;20305;-73
2022/07/05 02:53:20;;;;;;;6.88;2.92;;;;;;;21.59;58.29;99930.88;5123803;28;20088;-75
2022/07/05 02:55:45;;;;;;;5.35;2.65;;;;;;;21.67;57.84;99917.91;5123571;28;20325;-72
2022/07/05 02:58:11;;;;;;;8.63;2.70;;;;;;;21.73;58.19;99935.03;5123820;28;20043;-72
2022/07/05 03:00:36;;;;;;;7.32;2.78;;;;;;;21.85;57.58;99940.47;5123657;28;20069;-75
2022/07/05 03:03:02;;;;;;;7.50;3.20;;;;;;;21.87;57.21;99931.09;5123646;28;20229;-75
2022/07/05 03:05:28;;;;;;;12.93;3.28;;;;;;;21.85;57.04;99935.09;5123759;28;20323;-75
2022/07/05 03:07:53;;;;;;;9.60;3.78;;;;;;;21.76;57.79;99939.13;5123854;28;20036;-74
2022/07/05 03:10:19;;;;;;;9.23;2.67;;;;;;;21.48;58.00;99919.00;5123433;28;20020;-75
2022/07/05 03:12:44;;;;;;;9.05;3.08;;;;;;;21.67;57.92;99941.34;5123563;28;20039;-74
2022/07/05 03:15:10;;;;;;;5.40;2.75;;;;;;;21.77;57.67;99943.47;5123216;28;20027;-75
2022/07/05 03:17:35;;;;;;;6.18;3.28;;;;;;;21.72;57.62;99932.56;5123532;28;20077;-74
2022/07/05 03:20:01;;;;;;;6.70;3.17;;;;;;;21.72;58.42;99940.66;5123104;28;20065;-74
2022/07/05 03:22:26;;;;;;;7.35;2.63;;;;;;;21.48;59.52;99928.97;5123188;28;20226;-75
2022/07/05 03:24:52;;;;;;;7.50;2.90;;;;;;;21.43;60.08;99928.81;5123021;28;20027;-74
2022/07/05 03:27:17;;;;;;;6.15;2.78;;;;;;;21.54;59.67;99920.78;5122968;28;20024;-75
2022/07/05 03:29:43;;;;;;;10.48;2.95;;;;;;;21.65;59.32;99925.38;5124183;27;20031;-74
2022/07/05 03:32:08;;;;;;;10.32;2.40;;;;;;;21.79;58.24;99922.50;5144101;27;20019;-74
2022/07/05 03:34:33;;;;;;;5.38;2.50;;;;;;;21.95;57.93;99919.97;5143537;27;20381;-75
2022/07/05 03:36:59;;;;;;;11.55;2.70;;;;;;;22.12;57.57;99913.94;5143792;27;20031;-75
2022/07/05 03:39:24;;;;;;;6.80;3.05;;;;;;;22.08;57.29;99902.81;5143505;27;20328;-75
2022/07/05 03:41:50;;;;;;;5.78;2.53;;;;;;;22.20;56.65;99916.28;5143538;27;20035;-75
2022/07/05 03:44:15;;;;;;;9.82;2.78;;;;;;;22.20;57.72;99908.19;5143875;27;20031;-74
2022/07/05 03:46:41;;;;;;;7.30;2.75;;;;;;;22.07;57.41;99916.50;5143382;27;20031;-75
2022/07/05 03:49:06;;;;;;;5.68;2.75;;;;;;;22.10;56.98;99911.47;5143704;27;20505;-75
2022/07/05 03:51:32;;;;;;;4.28;2.50;;;;;;;22.17;56.50;99916.75;5143400;27;20019;-75
2022/07/05 03:53:57;;;;;;;10.40;2.80;;;;;;;22.29;56.06;99907.63;5143227;27;20066;-75
2022/07/05 03:56:23;;;;;;;6.25;2.67;;;;;;;22.34;56.41;99911.50;5143198;27;20283;-74
2022/07/05 03:58:51;;;;;;;5.97;2.47;;;;;;;22.30;57.99;99916.53;5143518;27;20030;-74
2022/07/05 04:01:17;;;;;;;8.30;2.53;;;;;;;22.08;58.46;99908.19;5143368;27;20027;-75
2022/07/05 04:03:42;;;;;;;6.03;2.90;;;;;;;22.07;58.37;99906.56;5143599;28;20393;-75
2022/07/05 04:06:09;;;;;;;9.25;2.88;;;;;;;22.21;59.47;99912.53;5143457;28;20049;-75
2022/07/05 04:08:35;;;;;;;7.00;2.50;;;;;;;22.29;58.11;99915.72;5143167;28;20039;-75
2022/07/05 04:11:00;;;;;;;5.88;2.65;;;;;;;22.42;56.59;99911.94;5143660;28;20023;-75
2022/07/05 04:13:26;;;;;;;8.85;3.47;;;;;;;22.62;56.32;99920.50;5143553;28;20031;-75
2022/07/05 04:15:53;;;;;;;9.77;4.50;;;;;;;22.81;55.99;99920.38;5124968;28;20029;-75
2022/07/05 04:18:18;;;;;;;13.30;3.55;;;;;;;22.84;57.55;99914.53;5143205;28;20035;-75
2022/07/05 04:20:44;;;;;;;11.32;3.80;;;;;;;22.95;57.78;99916.41;5143092;28;20027;-73
2022/07/05 04:23:09;;;;;;;9.13;3.45;;;;;;;23.22;56.85;99903.16;5142729;28;20027;-72
2022/07/05 04:25:35;;;;;;;10.70;3.30;;;;;;;23.18;56.54;99902.81;5143137;28;20076;-73
2022/07/05 04:28:00;;;;;;;16.25;4.13;;;;;;;23.71;54.14;99909.78;5143084;28;20039;-73
2022/07/05 04:30:26;;;;;;;8.15;3.70;;;;;;;23.94;53.32;99887.19;5142758;28;20035;-73
2022/07/05 04:32:52;;;;;;;17.48;3.72;;;;;;;24.35;52.63;99895.97;5143270;28;20035;-73
2022/07/05 04:35:17;;;;;;;15.88;3.50;;;;;;;24.28;52.40;99896.16;5142751;28;20305;-73
2022/07/05 04:37:43;;;;;;;12.13;3.53;;;;;;;24.33;52.63;99903.53;5124721;28;20091;-73
2022/07/05 04:40:11;;;;;;;15.00;3.28;;;;;;;24.54;51.00;99901.94;5142864;28;20035;-73
2022/07/05 04:42:37;;;;;;;8.02;3.25;;;;;;;24.51;50.71;99892.41;5143071;28;20046;-73
2022/07/05 04:45:04;;;;;;;18.42;3.67;;;;;;;24.75;50.76;99896.53;5142688;28;20034;-73
2022/07/05 04:47:29;;;;;;;25.55;4.22;;;;;;;24.90;50.11;99887.78;5143037;28;20043;-73
2022/07/05 04:49:57;;;;;;;22.52;4.57;;;;;;;24.95;50.76;99887.03;5124374;28;20092;-73
2022/07/05 04:52:23;;;;;;;15.80;4.18;;;;;;;25.08;50.83;99887.53;5142795;28;20068;-73
2022/07/05 04:54:48;;;;;;;6.50;3.72;;;;;;;25.30;47.87;99886.66;5142483;28;20031;-73
2022/07/05 04:57:14;;;;;;;10.02;3.90;;;;;;;25.19;48.92;99899.28;5142612;28;20027;-73
2022/07/05 04:59:39;;;;;;;14.60;3.97;;;;;;;25.16;48.30;99897.09;5145148;27;20023;-73
2022/07/05 05:02:05;;;;;;;8.63;3.83;;;;;;;25.16;49.04;99894.38;5146581;27;20027;-73
2022/07/05 05:04:30;;;;;;;16.30;4.22;;;;;;;25.26;48.97;99894.50;5146794;27;20136;-73
2022/07/05 05:06:56;;;;;;;14.35;3.78;;;;;;;25.51;47.79;99902.06;5146486;27;20031;-73
2022/07/05 05:09:21;;;;;;;13.43;4.18;;;;;;;25.67;47.17;99890.31;5146345;27;20035;-73
2022/07/05 05:11:47;;;;;;;12.93;4.22;;;;;;;25.65;47.18;99897.03;5146434;27;20050;-73
2022/07/05 05:14:13;;;;;;;10.15;4.00;;;;;;;25.88;46.79;99898.63;5146608;27;20266;-73
2022/07/05 05:16:38;;;;;;;10.20;3.60;;;;;;;26.07;46.36;99921.63;5128007;27;20268;-73
2022/07/05 05:19:04;;;;;;;13.55;4.72;;;;;;;26.30;45.25;99917.72;5146383;27;20042;-73
2022/07/05 05:21:29;;;;;;;16.65;4.15;;;;;;;26.33;45.56;99911.78;5127999;27;20220;-73
2022/07/05 05:23:55;;;;;;;15.40;4.65;;;;;;;26.06;44.69;99919.97;5145841;27;20035;-73
2022/07/05 05:26:20;;;;;;;16.52;4.57;;;;;;;26.40;44.54;99915.91;5146020;27;20035;-73
2022/07/05 05:28:45;;;;;;;9.88;4.68;;;;;;;26.53;44.04;99919.25;5146246;27;20031;-73
2022/07/05 05:31:11;;;;;;;10.15;4.00;;;;;;;26.43;44.54;99919.19;5127586;27;20035;-73
2022/07/05 05:33:36;;;;;;;12.77;4.13;;;;;;;26.57;43.62;99915.75;5146012;27;20031;-73
2022/07/05 05:36:02;;;;;;;13.82;3.63;;;;;;;26.44;44.59;99913.50;5146106;27;20037;-73
2022/07/05 05:38:28;;;;;;;8.82;4.18;;;;;;;26.48;45.09;99924.66;5145777;27;20035;-73
2022/07/05 05:40:54;;;;;;;9.23;3.55;;;;;;;27.00;43.83;99911.09;5145759;27;20027;-73
2022/07/05 05:43:19;;;;;;;5.50;3.40;;;;;;;27.00;43.73;99913.81;5145940;27;20074;-73
2022/07/05 05:45:45;;;;;;;6.55;3.63;;;;;;;27.30;43.40;99913.13;5145776;27;20220;-73
2022/07/05 05:48:10;;;;;;;5.47;3.70;;;;;;;27.45;42.91;99912.34;5145800;27;20106;-73
2022/07/05 05:50:38;;;;;;;7.63;3.60;;;;;;;27.71;42.21;99911.31;5145622;27;20332;-73
2022/07/05 05:53:05;;;;;;;7.25;3.30;;;;;;;28.16;41.09;99926.88;5145710;27;20031;-73
2022/07/05 05:55:31;;;;;;;12.02;3.70;;;;;;;28.42;39.71;99922.25;5145352;27;20383;-73
2022/07/05 05:58:14;;;;;;;9.98;4.05;;;;;;;28.38;39.55;99913.00;5145575;27;20102;-73
2022/07/05 06:00:40;;;;;;;16.42;4.40;;;;;;;28.25;39.97;99914.38;5145404;27;20030;-73
2022/07/05 06:03:05;;;;;;;13.00;4.20;;;;;;;28.07;40.83;99906.69;5145328;27;20038;-73
2022/07/05 06:05:31;;;;;;;11.02;4.28;;;;;;;28.05;40.38;99916.22;5127210;27;20027;-73
2022/07/05 06:07:56;;;;;;;14.38;3.60;;;;;;;28.26;40.15;99912.47;5145437;27;20068;-73
2022/07/05 06:10:28;;;;;;;13.73;4.57;;;;;;;28.30;40.01;99916.28;5145214;27;20023;-73
2022/07/05 06:12:57;;;;;;;10.10;4.03;;;;;;;28.49;39.39;99911.88;5145251;27;20047;-73
2022/07/05 06:15:22;;;;;;;15.20;4.93;;;;;;;28.52;39.04;99915.94;5145045;27;20023;-73
2022/07/05 06:17:48;;;;;;;7.80;3.88;;;;;;;28.36;39.17;99909.72;5145281;27;20027;-73
2022/07/05 06:20:22;;;;;;;12.38;4.40;;;;;;;28.54;39.32;99900.16;5145064;27;20035;-73
2022/07/05 06:22:48;;;;;;;10.75;3.90;;;;;;;28.91;38.15;99899.78;5145079;27;20346;-73
2022/07/05 06:25:13;;;;;;;10.85;4.65;;;;;;;29.06;38.17;99885.25;5144643;27;20023;-73
2022/07/05 06:27:40;;;;;;;6.60;4.00;;;;;;;29.14;38.01;99893.69;5144902;27;20098;-73
2022/07/05 06:30:07;;;;;;;11.02;4.35;;;;;;;29.48;36.83;99887.53;5144560;27;20046;-73
2022/07/05 06:32:33;;;;;;;11.82;4.13;;;;;;;29.68;36.12;99879.19;5144845;27;20038;-73
2022/07/05 06:34:58;;;;;;;10.15;4.22;;;;;;;29.86;35.88;99883.16;5144585;27;20031;-73
2022/07/05 06:37:24;;;;;;;15.38;4.25;;;;;;;29.83;35.89;99884.53;5144860;27;20201;-73
2022/07/05 06:39:49;;;;;;;7.63;3.78;;;;;;;30.28;35.30;99885.28;5144458;27;20251;-73
2022/07/05 06:42:15;;;;;;;6.75;3.25;;;;;;;30.52;34.11;99879.00;5144795;27;20090;-73
2022/07/05 06:44:42;;;;;;;12.05;4.03;;;;;;;30.75;34.56;99875.50;5144618;27;20048;-73
2022/07/05 06:47:07;;;;;;;7.35;3.40;;;;;;;30.90;33.68;99885.41;5144555;27;20031;-73
2022/07/05 06:49:33;;;;;;;7.72;3.60;;;;;;;31.08;33.29;99879.97;5144647;27;20034;-73
2022/07/05 06:51:58;;;;;;;6.18;3.40;;;;;;;31.13;33.48;99877.16;5125941;27;20033;-73
2022/07/05 06:54:24;;;;;;;10.13;3.60;;;;;;;31.22;34.58;99874.66;5144055;27;20035;-73
2022/07/05 06:56:49;;;;;;;8.90;3.80;;;;;;;31.09;34.38;99880.78;5144091;27;20023;-73
2022/07/05 06:59:14;;;;;;;7.80;3.58;;;;;;;31.38;33.56;99869.78;5144404;27;20037;-73
2022/07/05 07:01:40;;;;;;;10.57;3.40;;;;;;;31.73;32.60;99871.16;5125747;27;20031;-73
2022/07/05 07:04:05;;;;;;;12.77;4.45;;;;;;;31.66;32.49;99873.44;5143207;27;20031;-73
2022/07/05 07:06:31;;;;;;;9.35;3.72;;;;;;;31.80;32.11;99862.56;5143070;27;20229;-73
2022/07/05 07:11:40;;;;;;;6.07;3.83;;;;;;;32.00;31.61;99827.41;5143104;27;20176;-73
2022/07/05 07:14:06;;;;;;;11.02;3.05;;;;;;;32.08;31.97;99848.63;5143002;27;20023;-73
2022/07/05 07:16:31;;;;;;;12.48;3.80;;;;;;;32.30;31.97;99838.97;5142758;27;20054;-73
2022/07/05 07:18:57;;;;;;;8.40;3.50;;;;;;;32.47;30.83;99841.13;5142786;27;20094;-74
2022/07/05 07:21:23;;;;;;;8.60;3.78;;;;;;;32.03;31.64;99832.28;5142180;27;20047;-73
2022/07/05 07:23:49;;;;;;;8.55;3.58;;;;;;;32.07;31.45;99844.28;5142690;27;20049;-73
2022/07/05 07:26:14;;;;;;;7.50;3.65;;;;;;;32.36;31.61;99833.09;5142498;27;20043;-73
2022/07/05 07:28:40;;;;;;;10.63;3.25;;;;;;;32.63;30.96;99845.16;5142664;27;20216;-73
2022/07/05 07:31:06;;;;;;;5.97;3.45;;;;;;;32.46;30.98;99834.00;5142431;27;20099;-73
2022/07/05 07:33:32;;;;;;;7.20;3.83;;;;;;;32.77;29.99;99836.94;5142819;27;20195;-73
2022/07/05 07:35:58;;;;;;;9.57;3.63;;;;;;;32.95;30.26;99836.84;5142409;27;20328;-73
2022/07/05 07:38:24;;;;;;;10.27;3.60;;;;;;;32.38;30.94;99835.53;5142718;27;20039;-73
2022/07/05 07:40:50;;;;;;;8.45;3.28;;;;;;;32.45;29.82;99835.13;5142379;27;20041;-73
2022/07/05 07:43:16;;;;;;;7.38;2.90;;;;;;;32.91;28.78;99848.72;5142461;27;20274;-73
2022/07/05 07:45:42;;;;;;;6.25;2.90;;;;;;;33.00;29.65;99836.72;5142340;27;20095;-74
2022/07/05 07:48:08;;;;;;;8.68;3.03;;;;;;;33.27;30.11;99844.06;5142504;27;20055;-74
2022/07/05 07:50:34;;;;;;;5.38;2.80;;;;;;;33.31;29.16;99844.31;5142418;27;20043;-73
2022/07/05 07:52:59;;;;;;;7.25;3.00;;;;;;;32.94;29.49;99842.63;5123691;27;20308;-73
2022/07/05 07:55:24;;;;;;;6.68;3.10;;;;;;;32.80;29.87;99842.66;5141818;27;20240;-73
2022/07/05 07:57:50;;;;;;;6.97;2.90;;;;;;;33.01;29.42;99841.09;5142097;27;20224;-73
2022/07/05 08:00:15;;;;;;;4.72;2.83;;;;;;;32.89;30.42;99849.03;5142453;27;20031;-73
2022/07/05 08:02:41;;;;;;;6.78;4.20;;;;;;;33.31;29.40;99847.06;5142323;27;20046;-73
2022/07/05 08:05:09;;;;;;;9.60;2.65;;;;;;;33.54;29.42;99845.13;5141926;28;20679;-73
2022/07/05 08:07:35;;;;;;;8.93;2.80;;;;;;;33.73;29.00;99853.19;5123793;28;20019;-73
2022/07/05 08:10:00;;;;;;;6.20;3.47;;;;;;;33.32;29.59;99859.66;5141958;28;20069;-73
2022/07/05 08:12:26;;;;;;;7.95;2.75;;;;;;;33.70;28.42;99854.63;5142123;28;20312;-73
2022/07/05 08:14:51;;;;;;;6.28;3.20;;;;;;;33.90;27.97;99861.56;5141761;28;20035;-73
2022/07/05 08:17:20;;;;;;;9.25;2.72;;;;;;;34.25;27.46;99846.06;5142087;28;20232;-73
2022/07/05 08:22:30;;;;;;;8.00;3.28;;;;;;;33.73;28.73;99848.50;5120827;28;20039;-73
2022/07/05 08:24:56;;;;;;;6.18;3.22;;;;;;;33.37;28.45;99843.06;5139243;28;20565;-73
2022/07/05 08:27:21;;;;;;;6.40;2.85;;;;;;;33.75;28.23;99848.19;5141046;28;20270;-73
2022/07/05 08:29:47;;;;;;;10.75;3.28;;;;;;;33.82;27.37;99843.09;5140757;28;20290;-73
2022/07/05 08:32:13;;;;;;;9.80;2.92;;;;;;;34.10;26.93;99844.53;5141280;28;20019;-73
2022/07/05 08:34:38;;;;;;;9.63;3.00;;;;;;;34.31;26.13;99841.22;5143594;27;20038;-73
2022/07/05 08:37:04;;;;;;;10.85;3.90;;;;;;;34.36;26.42;99841.97;5145067;27;20029;-73
2022/07/05 08:39:30;;;;;;;12.52;5.38;;;;;;;34.12;27.64;99834.03;5145342;27;20304;-73
2022/07/05 08:41:57;;;;;;;9.30;4.60;;;;;;;34.39;27.33;99832.28;5145024;27;20042;-72
2022/07/05 08:44:23;;;;;;;8.93;3.95;;;;;;;34.50;26.92;99828.91;5145397;27;20027;-73
2022/07/05 08:46:52;;;;;;;11.90;4.13;;;;;;;34.05;27.20;99830.13;5145049;27;20340;-73
2022/07/05 08:49:22;;;;;;;9.32;3.60;;;;;;;34.22;27.73;99822.78;5144868;27;20034;-73
2022/07/05 08:51:49;;;;;;;7.00;3.38;;;;;;;34.58;26.85;99827.31;5145278;27;20031;-73
2022/07/05 08:54:16;;;;;;;8.20;3.70;;;;;;;34.74;26.59;99822.19;5144701;27;20035;-73
2022/07/05 08:56:43;;;;;;;10.48;5.07;;;;;;;34.20;27.02;99824.22;5144512;27;20039;-73
2022/07/05 08:59:08;;;;;;;7.75;3.70;;;;;;;33.53;27.65;99827.84;5144517;27;20027;-73
2022/07/05 09:01:35;;;;;;;8.55;4.05;;;;;;;33.69;28.25;99817.28;5144794;27;20029;-73
2022/07/05 09:04:04;;;;;;;7.30;3.85;;;;;;;33.69;27.59;99809.06;5145333;27;20194;-73
2022/07/05 09:06:31;;;;;;;7.35;3.40;;;;;;;33.84;27.17;99814.19;5145410;27;20392;-73
2022/07/05 09:08:59;;;;;;;11.70;3.60;;;;;;;33.95;27.56;99812.78;5145623;27;20154;-73
2022/07/05 09:11:38;;;;;;;7.95;2.90;;;;;;;34.00;27.61;99811.03;5145186;27;20035;-73
2022/07/05 09:14:18;;;;;;;6.28;3.13;;;;;;;34.06;27.29;99801.53;5145332;27;20046;-73
2022/07/05 09:16:44;;;;;;;10.70;3.45;;;;;;;34.19;27.99;99806.09;5144952;27;20027;-73
2022/07/05 09:19:09;;;;;;;8.27;3.35;;;;;;;34.46;28.11;99803.19;5145496;27;20027;-73
2022/07/05 09:21:35;;;;;;;8.85;3.35;;;;;;;34.21;27.66;99803.84;5145288;27;20035;-73
2022/07/05 09:24:02;;;;;;;6.80;3.28;;;;;;;33.74;28.77;99794.38;5144991;27;20221;-74
2022/07/05 09:26:36;;;;;;;11.18;3.35;;;;;;;33.27;28.98;99786.44;5144884;27;20031;-73
2022/07/05 09:29:04;;;;;;;11.38;3.25;;;;;;;33.44;29.91;99795.97;5145259;27;20043;-73
2022/07/05 09:31:33;;;;;;;7.38;3.67;;;;;;;33.09;30.04;99787.41;5124321;28;20067;-73
2022/07/05 09:34:09;;;;;;;7.90;3.38;;;;;;;32.87;30.13;99790.13;5144572;27;20308;-73
2022/07/05 09:36:53;;;;;;;6.38;3.30;;;;;;;32.89;30.23;99790.63;5144565;27;20047;-73
2022/07/05 09:39:33;;;;;;;;;;;;;;;32.75;31.09;99787.06;5145347;27;20027;-73
2022/07/05 09:42:20;;;;;;;10.02;3.25;;;;;;;32.57;28.97;99781.41;5145156;27;19916;-73
2022/07/05 09:44:56;;;;;;;7.85;2.80;;;;;;;32.45;29.28;99780.31;5125815;27;20046;-73
2022/07/05 09:47:26;;;;;;;5.65;2.55;;;;;;;32.37;27.45;99762.66;5144692;27;20262;-73
2022/07/05 09:49:53;;;;;;;4.45;2.85;;;;;;;32.80;28.24;99776.84;5144581;27;20050;-73
2022/07/05 09:52:26;;;;;;;6.13;3.08;;;;;;;32.96;28.90;99775.38;5144287;27;20034;-73
2022/07/05 09:55:01;;;;;;;5.22;2.22;;;;;;;32.82;25.36;99771.84;5144049;27;20066;-73
2022/07/05 09:57:27;;;;;;;9.77;2.97;;;;;;;32.76;28.00;99769.50;5144381;27;20026;-73
2022/07/05 10:00:11;;;;;;;6.55;2.97;;;;;;;32.64;29.41;99765.38;5144364;27;20035;-73
2022/07/05 10:02:44;;;;;;;7.97;2.80;;;;;;;32.46;30.65;99762.75;5144565;27;20031;-73
2022/07/05 10:05:24;;;;;;;8.63;2.93;;;;;;;32.45;28.50;99761.94;5144213;27;20094;-73
2022/07/05 10:07:51;;;;;;;8.25;2.55;;;;;;;32.37;30.83;99766.22;5125767;27;20250;-73
2022/07/05 10:10:27;;;;;;;5.88;2.97;;;;;;;32.11;30.70;99759.56;5144157;27;20031;-73
2022/07/05 10:12:55;;;;;;;9.13;2.45;;;;;;;32.01;29.89;99757.03;5144292;27;20035;-73
2022/07/05 10:15:23;;;;;;;5.95;2.42;;;;;;;31.82;29.94;99759.84;5143864;27;20098;-73
2022/07/05 10:18:11;;;;;;;3.63;2.65;;;;;;;31.94;29.63;99751.94;5143909;27;20087;-73
2022/07/05 10:20:37;;;;;;;7.93;2.40;;;;;;;31.80;31.80;99755.78;5143896;27;20058;-73
2022/07/05 10:23:08;;;;;;;5.00;2.50;;;;;;;31.89;32.44;99757.53;5143801;27;20031;-73
2022/07/05 10:25:36;;;;;;;6.78;2.60;;;;;;;31.88;30.29;99749.63;5143628;27;20039;-73
2022/07/05 10:28:03;;;;;;;9.63;2.55;;;;;;;31.77;31.86;99753.66;5143720;27;20031;-73
2022/07/05 10:30:30;;;;;;;8.98;2.50;;;;;;;31.51;30.27;99748.59;5143542;27;20057;-73
2022/07/05 10:32:56;;;;;;;5.13;2.70;;;;;;;31.83;29.84;99742.31;5143742;27;20051;-73
2022/07/05 10:35:21;;;;;;;5.03;2.67;;;;;;;32.02;30.56;99742.22;5143510;27;20039;-73
2022/07/05 10:37:48;;;;;;;6.55;2.28;;;;;;;32.19;31.04;99744.34;5143544;27;20111;-73
2022/07/05 10:40:15;;;;;;;9.27;2.25;;;;;;;31.87;28.11;99742.50;5143471;27;20050;-73
2022/07/05 10:42:54;;;;;;;4.82;2.58;;;;;;;32.06;29.53;99732.28;5125189;27;20023;-73
2022/07/05 10:45:32;;;;;;;4.20;2.20;;;;;;;32.06;28.07;99738.56;5125155;27;20039;-73
2022/07/05 10:48:10;;;;;;;6.10;2.70;;;;;;;32.15;28.15;99740.59;5143496;27;20097;-73
2022/07/05 10:50:50;;;;;;;7.72;2.72;;;;;;;32.00;31.98;99703.38;5143286;27;20043;-73
2022/07/05 10:53:21;;;;;;;5.75;2.60;;;;;;;32.28;32.94;99726.13;5124841;27;20042;-73
2022/07/05 10:55:53;;;;;;;4.47;2.70;;;;;;;31.69;32.35;99708.59;5142507;27;20076;-73
2022/07/05 10:58:47;;;;;;;6.40;3.08;;;;;;;31.61;33.14;99718.31;5143012;27;20042;-73
2022/07/05 11:01:15;;;;;;;7.15;2.75;;;;;;;31.91;31.78;99718.88;5124966;27;20052;-73
2022/07/05 11:03:47;;;;;;;8.48;2.70;;;;;;;31.93;34.01;99719.38;5143275;27;20121;-73
2022/07/05 11:06:20;;;;;;;2.85;2.15;;;;;;;31.79;33.19;99718.56;5143008;27;20042;-73
2022/07/05 11:08:57;;;;;;;10.70;2.30;;;;;;;31.93;31.55;99712.00;5142974;27;20042;-73
2022/07/05 11:11:31;;;;;;;4.10;2.53;;;;;;;31.80;32.65;99703.78;5142994;27;20456;-73
2022/07/05 11:13:58;;;;;;;7.47;2.80;;;;;;;31.89;31.90;99694.53;5116054;27;20080;-73
2022/07/05 11:16:35;;;;;;;5.07;2.40;;;;;;;32.04;31.73;99696.97;5116338;27;21270;-73
2022/07/05 11:19:08;;;;;;;6.35;2.40;;;;;;;32.02;31.21;99696.47;5141302;27;20023;-73
2022/07/05 11:21:35;;;;;;;5.72;2.58;;;;;;;32.00;32.55;99697.88;5140700;27;20424;-73
2022/07/05 11:24:23;;;;;;;5.18;2.55;;;;;;;32.26;30.82;99685.34;5142490;27;20083;-73
2022/07/05 11:26:52;;;;;;;6.20;2.67;;;;;;;32.15;30.56;99692.09;5136066;27;20106;-73
2022/07/05 11:29:42;;;;;;;5.13;2.63;;;;;;;32.32;30.13;99686.84;5123478;27;20239;-73
2022/07/05 11:32:19;;;;;;;5.38;3.20;;;;;;;32.20;30.41;99674.75;5119124;28;20293;-73
2022/07/05 11:34:49;;;;;;;4.82;2.35;;;;;;;32.16;30.29;99682.75;5121174;28;20046;-73
2022/07/05 11:37:26;;;;;;;6.85;2.80;;;;;;;32.27;29.82;99670.53;5117511;28;20077;-73
2022/07/05 11:40:10;;;;;;;3.10;2.30;;;;;;;32.30;32.40;99664.44;5121218;28;20058;-73
2022/07/05 11:42:45;;;;;;;3.42;2.72;;;;;;;32.37;30.41;99677.72;5116792;28;20027;-73